Time;durP1;ratioP1;P1;durP2;ratioP2;P2;SDS_P1;SDS_P2;PMS_P1;PMS_P2;Temp;Humidity;BMP_temperature;BMP_pressure;BME280_temperature;BME280_humidity;BME280_pressure;Samples;Min_cycle;Max_cycle;Signal;HPM_P1;HPM_P2
2022/04/15 00:01:23;;;;;;;0.60;0.60;;;10.80;45.30;;;;;;5040566;28;20222;-76
2022/04/15 00:03:50;;;;;;;0.53;0.53;;;10.90;11.80;;;;;;5038442;28;20207;-75
2022/04/15 00:06:16;;;;;;;0.50;0.50;;;10.90;20.00;;;;;;5045531;28;20274;-76
2022/04/15 00:08:42;;;;;;;0.60;0.60;;;10.90;19.40;;;;;;5053817;28;20183;-76
2022/04/15 00:11:08;;;;;;;0.70;0.70;;;10.90;20.60;;;;;;5040289;28;20824;-76
2022/04/15 00:13:35;;;;;;;0.60;0.60;;;10.80;44.60;;;;;;5015972;28;20233;-76
2022/04/15 00:16:02;;;;;;;0.60;0.60;;;10.90;42.00;;;;;;5033607;28;20178;-76
2022/04/15 00:18:29;;;;;;;0.60;0.60;;;10.90;45.30;;;;;;5043932;28;20260;-75
2022/04/15 00:20:54;;;;;;;0.60;0.60;;;10.90;36.80;;;;;;5045591;28;20241;-76
2022/04/15 00:23:22;;;;;;;0.70;0.70;;;10.90;48.40;;;;;;5041518;28;20676;-75
2022/04/15 00:25:48;;;;;;;0.50;0.50;;;10.90;15.50;;;;;;5044563;28;20533;-75
2022/04/15 00:28:13;;;;;;;0.60;0.60;;;11.00;25.20;;;;;;5053440;28;20181;-75
2022/04/15 00:30:39;;;;;;;0.60;0.60;;;11.00;38.60;;;;;;5044293;28;20673;-75
2022/04/15 00:33:05;;;;;;;0.60;0.60;;;11.10;37.90;;;;;;5033492;28;20692;-76
2022/04/15 00:35:30;;;;;;;0.60;0.60;;;11.20;10.40;;;;;;5033434;28;20599;-75
2022/04/15 00:37:56;;;;;;;0.60;0.60;;;11.30;4.60;;;;;;5033228;28;20172;-75
2022/04/15 00:40:21;;;;;;;0.50;0.50;;;11.30;1.00;;;;;;5031669;28;20196;-75
2022/04/15 00:42:47;;;;;;;0.43;0.43;;;11.30;6.90;;;;;;5032888;28;20183;-76
2022/04/15 00:45:12;;;;;;;0.50;0.50;;;11.20;1.00;;;;;;5032989;28;20226;-76
2022/04/15 00:47:51;;;;;;;0.50;0.50;;;11.10;13.80;;;;;;5033377;28;20221;-76
2022/04/15 00:50:22;;;;;;;0.50;0.50;;;11.10;16.70;;;;;;5031682;28;20228;-76
2022/04/15 00:52:49;;;;;;;0.50;0.50;;;11.00;9.50;;;;;;5032733;28;20266;-76
2022/04/15 00:55:16;;;;;;;0.53;0.53;;;11.00;11.40;;;;;;5033241;28;20175;-76
2022/04/15 00:57:45;;;;;;;0.63;0.63;;;11.00;1.00;;;;;;5032885;28;20167;-76
2022/04/15 01:00:12;;;;;;;0.60;0.60;;;11.00;1.00;;;;;;5030920;28;20253;-76
2022/04/15 01:02:39;;;;;;;0.60;0.60;;;10.90;3.10;;;;;;5032483;28;20196;-75
2022/04/15 01:05:07;;;;;;;0.50;0.50;;;10.90;9.30;;;;;;5032991;28;20287;-76
2022/04/15 01:07:36;;;;;;;0.60;0.60;;;10.90;19.50;;;;;;5032985;28;20542;-76
2022/04/15 01:10:06;;;;;;;0.70;0.70;;;10.70;57.90;;;;;;5037085;28;20207;-76
2022/04/15 01:12:35;;;;;;;0.50;0.50;;;10.60;99.30;;;;;;5044430;28;20262;-75
2022/04/15 01:15:05;;;;;;;0.50;0.50;;;10.70;92.80;;;;;;5047738;28;20253;-76
2022/04/15 01:17:33;;;;;;;0.60;0.60;;;10.80;90.30;;;;;;5049083;28;20202;-76
2022/04/15 01:19:59;;;;;;;0.70;0.70;;;10.80;91.00;;;;;;5040941;28;20183;-76
2022/04/15 01:22:30;;;;;;;0.50;0.50;;;10.80;76.20;;;;;;5032323;28;20183;-76
2022/04/15 01:24:56;;;;;;;0.60;0.60;;;10.90;49.50;;;;;;5042722;28;20286;-76
2022/04/15 01:27:32;;;;;;;0.50;0.50;;;10.90;52.00;;;;;;5047833;28;20171;-76
2022/04/15 01:29:58;;;;;;;0.60;0.60;;;10.90;51.90;;;;;;5049100;28;20179;-76
2022/04/15 01:32:23;;;;;;;0.50;0.50;;;10.90;73.00;;;;;;5040468;28;20214;-75
2022/04/15 01:34:50;;;;;;;0.67;0.67;;;10.90;47.90;;;;;;5042337;28;20295;-76
2022/04/15 01:37:19;;;;;;;0.60;0.60;;;10.90;55.50;;;;;;5032776;28;20202;-75
2022/04/15 01:39:46;;;;;;;0.50;0.50;;;11.00;54.60;;;;;;5043918;28;20179;-75
2022/04/15 01:42:16;;;;;;;0.50;0.50;;;10.90;82.00;;;;;;5051965;28;20168;-75
2022/04/15 01:44:43;;;;;;;0.50;0.50;;;11.00;58.60;;;;;;5042992;28;20298;-76
2022/04/15 01:47:10;;;;;;;0.60;0.60;;;10.80;90.40;;;;;;5049076;28;20168;-75
2022/04/15 01:49:35;;;;;;;0.60;0.60;;;10.80;99.90;;;;;;5048280;28;20230;-75
2022/04/15 01:52:01;;;;;;;0.60;0.60;;;10.70;89.40;;;;;;5031757;28;20684;-76
2022/04/15 01:54:29;;;;;;;0.60;0.60;;;10.60;99.90;;;;;;5033893;28;20176;-75
2022/04/15 01:56:56;;;;;;;0.70;0.70;;;10.70;99.90;;;;;;5043003;28;20191;-75
2022/04/15 01:59:22;;;;;;;0.60;0.60;;;10.70;99.90;;;;;;5039928;28;20195;-76
2022/04/15 02:01:48;;;;;;;0.50;0.50;;;10.70;99.90;;;;;;5047074;28;20219;-75
2022/04/15 02:04:13;;;;;;;0.50;0.50;;;10.80;99.90;;;;;;5052507;28;20291;-75
2022/04/15 02:06:39;;;;;;;0.60;0.60;;;10.60;99.90;;;;;;5058308;28;20178;-75
2022/04/15 02:09:04;;;;;;;0.60;0.60;;;10.70;99.90;;;;;;5063595;28;20202;-75
2022/04/15 02:11:30;;;;;;;0.67;0.67;;;10.60;99.90;;;;;;5056648;28;20187;-73
2022/04/15 02:13:55;;;;;;;0.60;0.60;;;10.60;99.90;;;;;;5062140;28;20207;-75
2022/04/15 02:16:21;;;;;;;0.50;0.50;;;10.60;99.90;;;;;;5072812;28;20163;-74
2022/04/15 02:18:46;;;;;;;0.70;0.70;;;10.60;99.90;;;;;;5073395;28;20167;-75
2022/04/15 02:21:12;;;;;;;0.50;0.50;;;10.60;99.90;;;;;;5058805;28;20198;-74
2022/04/15 02:23:38;;;;;;;0.50;0.50;;;10.60;99.90;;;;;;5051938;28;20307;-75
2022/04/15 02:26:03;;;;;;;0.50;0.50;;;10.50;99.90;;;;;;5037960;28;20686;-75
2022/04/15 02:28:29;;;;;;;0.60;0.60;;;10.50;99.90;;;;;;5031782;28;20817;-75
2022/04/15 02:30:54;;;;;;;0.50;0.50;;;10.40;99.90;;;;;;5012396;28;20595;-75
2022/04/15 02:33:20;;;;;;;0.60;0.60;;;10.30;99.90;;;;;;5031420;28;20258;-75
2022/04/15 02:35:45;;;;;;;0.60;0.60;;;10.30;99.90;;;;;;5031314;28;20179;-75
2022/04/15 02:38:11;;;;;;;0.50;0.50;;;10.30;99.90;;;;;;5031576;28;20652;-76
2022/04/15 02:40:37;;;;;;;0.50;0.50;;;10.30;99.90;;;;;;5015128;28;20192;-74
2022/04/15 02:43:03;;;;;;;0.60;0.60;;;10.30;99.90;;;;;;5041125;28;20265;-74
2022/04/15 02:45:29;;;;;;;0.50;0.50;;;10.30;99.90;;;;;;5040382;28;20179;-74
2022/04/15 02:47:55;;;;;;;0.70;0.70;;;10.30;99.90;;;;;;5047650;28;20184;-74
2022/04/15 02:50:21;;;;;;;0.53;0.53;;;10.30;99.90;;;;;;5057889;28;20202;-75
2022/04/15 02:52:46;;;;;;;0.50;0.50;;;10.40;99.90;;;;;;5057622;28;20195;-75
2022/04/15 02:55:12;;;;;;;0.60;0.60;;;10.30;99.90;;;;;;5047922;28;20179;-74
2022/04/15 02:57:38;;;;;;;0.50;0.50;;;10.30;99.90;;;;;;5042216;28;20633;-74
2022/04/15 03:00:04;;;;;;;0.70;0.70;;;10.30;99.90;;;;;;5038738;28;20241;-74
2022/04/15 03:02:33;;;;;;;0.60;0.60;;;10.40;99.90;;;;;;5040700;28;20191;-74
2022/04/15 03:05:00;;;;;;;0.60;0.60;;;10.50;99.90;;;;;;5041324;28;20226;-75
2022/04/15 03:07:25;;;;;;;0.60;0.60;;;10.50;99.90;;;;;;5037627;28;20266;-75
2022/04/15 03:09:51;;;;;;;0.67;0.67;;;10.50;99.90;;;;;;5034105;28;20211;-75
2022/04/15 03:12:16;;;;;;;0.60;0.60;;;10.30;99.90;;;;;;5034656;28;20645;-75
2022/04/15 03:14:42;;;;;;;0.60;0.60;;;10.30;99.90;;;;;;5039524;28;20172;-75
2022/04/15 03:17:08;;;;;;;0.50;0.50;;;10.30;99.90;;;;;;5035053;28;20735;-75
2022/04/15 03:19:34;;;;;;;0.60;0.60;;;10.30;99.90;;;;;;5034251;28;20182;-75
2022/04/15 03:22:00;;;;;;;0.50;0.50;;;10.30;99.90;;;;;;5015307;28;20203;-75
2022/04/15 03:24:25;;;;;;;0.50;0.50;;;10.20;99.90;;;;;;5035101;28;20226;-75
2022/04/15 03:26:51;;;;;;;0.50;0.50;;;10.10;99.90;;;;;;5034817;28;20645;-75
2022/04/15 03:29:17;;;;;;;0.60;0.60;;;10.00;99.90;;;;;;5034215;28;20179;-75
2022/04/15 03:31:42;;;;;;;0.60;0.60;;;10.00;99.90;;;;;;5037407;28;20213;-73
2022/04/15 03:34:08;;;;;;;0.60;0.60;;;9.90;99.90;;;;;;5052538;28;20594;-75
2022/04/15 03:36:33;;;;;;;0.60;0.60;;;9.90;99.90;;;;;;5034975;28;20182;-75
2022/04/15 03:38:59;;;;;;;0.60;0.60;;;9.90;99.90;;;;;;5033855;28;20184;-75
2022/04/15 03:41:25;;;;;;;0.60;0.60;;;9.80;99.90;;;;;;5033337;28;20283;-73
2022/04/15 03:43:51;;;;;;;0.60;0.60;;;9.80;99.90;;;;;;5034259;28;20216;-74
2022/04/15 03:46:17;;;;;;;0.60;0.60;;;9.80;99.90;;;;;;5034394;28;20178;-74
2022/04/15 03:48:43;;;;;;;0.60;0.60;;;9.70;99.90;;;;;;5034058;28;20663;-74
2022/04/15 03:51:10;;;;;;;0.63;0.63;;;9.50;99.90;;;;;;5032544;28;20195;-74
2022/04/15 03:53:35;;;;;;;0.63;0.63;;;9.50;99.90;;;;;;5034131;28;20653;-74
2022/04/15 03:56:01;;;;;;;0.60;0.60;;;9.40;99.90;;;;;;5034341;28;20226;-74
2022/04/15 03:58:27;;;;;;;0.70;0.70;;;9.30;99.90;;;;;;5034260;28;20180;-74
2022/04/15 04:00:53;;;;;;;0.60;0.60;;;9.40;99.90;;;;;;5031155;28;20660;-74
2022/04/15 04:03:19;;;;;;;0.70;0.70;;;9.30;99.90;;;;;;5033583;28;20226;-74
2022/04/15 04:05:44;;;;;;;0.60;0.60;;;9.40;99.90;;;;;;5034444;28;20291;-74
2022/04/15 04:08:10;;;;;;;0.60;0.60;;;9.40;99.90;;;;;;5034269;28;20192;-74
2022/04/15 04:10:36;;;;;;;0.60;0.60;;;9.30;99.90;;;;;;5032636;28;20204;-75
2022/04/15 04:13:02;;;;;;;0.60;0.60;;;9.30;99.90;;;;;;5016043;28;20183;-74
2022/04/15 04:15:29;;;;;;;0.50;0.50;;;9.30;99.90;;;;;;5033987;28;20267;-75
2022/04/15 04:17:56;;;;;;;0.60;0.60;;;9.30;99.90;;;;;;5033726;28;20191;-74
2022/04/15 04:20:22;;;;;;;0.53;0.53;;;9.20;99.90;;;;;;5032311;28;20218;-74
2022/04/15 04:22:48;;;;;;;0.60;0.60;;;9.10;99.90;;;;;;5033492;28;20207;-74
2022/04/15 04:25:13;;;;;;;0.67;0.67;;;9.00;99.90;;;;;;5033811;28;20168;-74
2022/04/15 04:27:40;;;;;;;0.60;0.60;;;9.00;99.90;;;;;;5033688;28;20269;-74
2022/04/15 04:30:07;;;;;;;0.70;0.70;;;8.90;99.90;;;;;;5032368;28;20230;-74
2022/04/15 04:32:33;;;;;;;0.60;0.60;;;8.90;99.90;;;;;;5033603;28;20202;-75
2022/04/15 04:34:59;;;;;;;0.60;0.60;;;8.90;99.90;;;;;;5033779;28;20178;-74
2022/04/15 04:37:25;;;;;;;0.70;0.70;;;8.80;99.90;;;;;;5033214;28;20287;-74
2022/04/15 04:39:51;;;;;;;0.80;0.80;;;8.70;99.90;;;;;;5031574;28;20198;-73
2022/04/15 04:42:18;;;;;;;0.70;0.70;;;8.70;99.90;;;;;;5032746;28;20172;-74
2022/04/15 04:44:44;;;;;;;0.50;0.50;;;8.60;99.90;;;;;;5033242;28;20261;-73
2022/04/15 04:47:10;;;;;;;0.70;0.70;;;8.70;99.90;;;;;;5032981;28;20176;-74
2022/04/15 04:49:37;;;;;;;0.70;0.70;;;8.80;99.90;;;;;;5032763;28;20180;-73
2022/04/15 04:52:06;;;;;;;0.67;0.67;;;8.90;99.90;;;;;;5031955;28;20207;-73
2022/04/15 04:54:31;;;;;;;0.70;0.70;;;8.90;99.90;;;;;;5033122;28;20172;-73
2022/04/15 04:56:57;;;;;;;0.70;0.70;;;9.00;99.90;;;;;;5033063;28;20172;-74
2022/04/15 04:59:25;;;;;;;0.70;0.70;;;9.00;99.90;;;;;;5032401;28;20176;-74
2022/04/15 05:01:51;;;;;;;0.60;0.60;;;9.00;99.90;;;;;;5031554;28;20219;-73
2022/04/15 05:04:16;;;;;;;0.70;0.70;;;9.00;99.90;;;;;;5032756;28;20215;-74
2022/04/15 05:06:42;;;;;;;0.70;0.70;;;9.10;99.90;;;;;;5032937;28;20180;-74
2022/04/15 05:09:07;;;;;;;0.70;0.70;;;9.20;99.90;;;;;;5033717;28;20668;-74
2022/04/15 05:11:33;;;;;;;0.60;0.60;;;9.30;99.90;;;;;;5044016;28;20254;-74
2022/04/15 05:13:58;;;;;;;0.60;0.60;;;9.30;99.90;;;;;;5041615;28;20168;-74
2022/04/15 05:16:24;;;;;;;0.60;0.60;;;9.40;99.90;;;;;;5048498;28;20206;-74
2022/04/15 05:18:50;;;;;;;0.60;0.60;;;9.40;99.90;;;;;;5052648;28;20498;-74
2022/04/15 05:21:15;;;;;;;0.60;0.60;;;9.50;99.90;;;;;;5044860;28;20195;-74
2022/04/15 05:23:41;;;;;;;0.60;0.60;;;9.50;99.90;;;;;;5043895;28;20217;-74
2022/04/15 05:26:07;;;;;;;0.80;0.80;;;9.40;99.90;;;;;;5052450;28;20666;-74
2022/04/15 05:28:35;;;;;;;0.60;0.60;;;9.60;99.90;;;;;;5052133;28;20205;-74
2022/04/15 05:31:04;;;;;;;0.70;0.70;;;9.70;99.90;;;;;;5042263;28;20669;-74
2022/04/15 05:33:30;;;;;;;0.60;0.60;;;9.80;99.90;;;;;;5052030;28;20864;-74
2022/04/15 05:35:56;;;;;;;0.63;0.63;;;9.70;99.90;;;;;;5052483;28;20168;-74
2022/04/15 05:38:21;;;;;;;0.63;0.63;;;10.00;99.90;;;;;;5052212;28;20183;-75
2022/04/15 05:40:47;;;;;;;0.50;0.50;;;10.10;99.90;;;;;;5042103;28;20215;-74
2022/04/15 05:43:12;;;;;;;0.67;0.67;;;10.40;99.90;;;;;;5032550;28;20250;-74
2022/04/15 05:45:38;;;;;;;0.60;0.60;;;10.70;99.90;;;;;;5032420;28;20202;-75
2022/04/15 05:48:04;;;;;;;0.70;0.70;;;10.90;77.50;;;;;;5032361;28;20188;-74
2022/04/15 05:50:29;;;;;;;0.60;0.60;;;11.00;1.70;;;;;;5030155;28;20196;-74
2022/04/15 05:52:55;;;;;;;0.60;0.60;;;10.90;99.90;;;;;;5037397;28;20182;-74
2022/04/15 05:55:20;;;;;;;0.40;0.40;;;11.10;99.90;;;;;;5051821;28;20177;-74
2022/04/15 05:57:46;;;;;;;0.50;0.50;;;11.40;1.00;;;;;;5051788;28;20203;-74
2022/04/15 06:00:12;;;;;;;0.60;0.60;;;11.70;1.00;;;;;;5035495;28;20195;-74
2022/04/15 06:02:38;;;;;;;0.50;0.50;;;11.90;1.00;;;;;;5037015;28;20202;-74
2022/04/15 06:05:04;;;;;;;0.50;0.50;;;11.70;1.00;;;;;;5042305;28;20290;-75
2022/04/15 06:07:29;;;;;;;0.60;0.60;;;11.80;1.00;;;;;;5044985;28;20259;-74
2022/04/15 06:09:55;;;;;;;0.60;0.60;;;12.20;1.00;;;;;;5038381;28;20263;-74
2022/04/15 06:12:21;;;;;;;0.57;0.57;;;12.30;1.00;;;;;;5041933;28;20172;-76
2022/04/15 06:14:51;;;;;;;0.50;0.50;;;12.00;1.00;;;;;;5041664;28;20192;-75
2022/04/15 06:17:21;;;;;;;0.43;0.43;;;12.10;1.00;;;;;;5023542;28;20176;-77
2022/04/15 06:19:47;;;;;;;0.40;0.40;;;12.00;1.00;;;;;;5041749;28;20262;-75
2022/04/15 06:22:13;;;;;;;0.50;0.50;;;12.10;1.00;;;;;;5043060;28;20648;-75
2022/04/15 06:24:38;;;;;;;0.40;0.40;;;12.20;1.00;;;;;;5042975;28;20211;-76
2022/04/15 06:27:04;;;;;;;0.50;0.50;;;12.10;1.00;;;;;;5041002;28;20167;-76
2022/04/15 06:29:29;;;;;;;0.50;0.50;;;12.20;1.00;;;;;;5046158;28;20190;-76
2022/04/15 06:31:55;;;;;;;0.50;0.50;;;12.20;1.00;;;;;;5049031;28;20196;-78
2022/04/15 06:34:21;;;;;;;0.50;0.50;;;12.70;1.00;;;;;;5028095;28;20581;-76
2022/04/15 06:36:47;;;;;;;0.40;0.40;;;12.80;1.00;;;;;;5051616;28;20175;-76
2022/04/15 06:39:13;;;;;;;0.40;0.40;;;13.30;1.00;;;;;;5051256;28;20753;-76
2022/04/15 06:41:40;;;;;;;0.40;0.40;;;13.30;1.00;;;;;;5052429;28;20199;-77
2022/04/15 06:44:06;;;;;;;0.40;0.40;;;13.10;1.00;;;;;;5044995;28;20270;-76
2022/04/15 06:46:32;;;;;;;0.30;0.30;;;13.00;1.00;;;;;;5038749;28;20214;-77
2022/04/15 06:48:57;;;;;;;0.50;0.50;;;13.20;1.00;;;;;;5035397;28;20183;-76
2022/04/15 06:51:25;;;;;;;0.50;0.50;;;13.60;1.00;;;;;;5032363;28;20219;-77
2022/04/15 06:53:51;;;;;;;0.40;0.40;;;14.00;1.00;;;;;;5053993;28;20182;-77
2022/04/15 06:56:16;;;;;;;0.50;0.50;;;13.60;1.00;;;;;;5049606;28;20167;-77
2022/04/15 06:58:42;;;;;;;0.40;0.40;;;14.30;99.90;;;;;;5052936;28;20210;-77
2022/04/15 07:01:07;;;;;;;0.40;0.40;;;14.80;1.00;;;;;;5052297;28;20222;-76
2022/04/15 07:03:33;;;;;;;0.50;0.50;;;15.50;99.90;;;;;;5053367;28;20218;-77
2022/04/15 07:05:58;;;;;;;0.30;0.30;;;15.20;99.90;;;;;;5052222;28;20172;-77
2022/04/15 07:08:24;;;;;;;0.40;0.40;;;15.50;1.00;;;;;;5052108;28;20182;-77
2022/04/15 07:10:49;;;;;;;0.40;0.40;;;15.60;99.90;;;;;;5051296;28;20195;-76
2022/04/15 07:13:15;;;;;;;0.30;0.30;;;15.30;99.90;;;;;;5051682;28;20636;-76
2022/04/15 07:15:40;;;;;;;0.40;0.40;;;15.40;1.00;;;;;;5052709;28;20245;-78
2022/04/15 07:18:06;;;;;;;0.33;0.33;;;16.10;45.40;;;;;;5053467;28;20175;-78
2022/04/15 07:20:32;;;;;;;0.40;0.40;;;17.30;99.90;;;;;;5045410;28;20208;-78
2022/04/15 07:23:01;;;;;;;0.30;0.30;;;17.50;99.90;;;;;;5045582;28;20179;-77
2022/04/15 07:25:27;;;;;;;0.30;0.30;;;17.70;1.00;;;;;;5039876;28;20180;-79
2022/04/15 07:27:56;;;;;;;0.30;0.30;;;18.00;37.90;;;;;;5035364;28;20193;-78
2022/04/15 07:30:23;;;;;;;0.37;0.37;;;18.30;1.00;;;;;;5044188;28;20233;-77
2022/04/15 07:32:48;;;;;;;0.30;0.30;;;18.50;1.00;;;;;;5043300;28;20652;-75
2022/04/15 07:35:14;;;;;;;0.37;0.37;;;18.60;1.00;;;;;;5046147;28;20175;-74
2022/04/15 07:37:39;;;;;;;0.33;0.33;;;18.30;1.00;;;;;;5048462;28;20175;-75
2022/04/15 07:40:05;;;;;;;0.23;0.23;;;18.90;1.00;;;;;;5046714;28;20204;-75
2022/04/15 07:42:31;;;;;;;0.30;0.30;;;18.90;1.00;;;;;;5051345;28;20672;-75
2022/04/15 07:44:56;;;;;;;0.30;0.30;;;19.20;1.00;;;;;;5055762;28;20349;-75
2022/04/15 07:47:23;;;;;;;0.40;0.40;;;19.40;1.00;;;;;;5056484;28;20199;-75
2022/04/15 07:49:50;;;;;;;0.40;0.40;;;19.60;1.00;;;;;;5046479;28;20233;-74
2022/04/15 07:52:16;;;;;;;0.40;0.40;;;19.90;1.00;;;;;;5054582;28;20258;-75
2022/04/15 07:54:42;;;;;;;0.30;0.30;;;20.50;1.00;;;;;;5047830;28;20214;-76
2022/04/15 07:57:08;;;;;;;0.40;0.40;;;21.30;1.00;;;;;;5047520;28;20262;-75
2022/04/15 07:59:33;;;;;;;0.30;0.30;;;21.20;1.00;;;;;;5045201;28;20229;-75
2022/04/15 08:01:59;;;;;;;0.40;0.40;;;20.90;1.00;;;;;;5053374;28;20215;-76
2022/04/15 08:04:26;;;;;;;0.30;0.30;;;21.00;1.00;;;;;;5053231;28;20214;-76
2022/04/15 08:06:52;;;;;;;0.40;0.40;;;21.00;1.00;;;;;;5042068;28;20191;-77
2022/04/15 08:09:18;;;;;;;0.40;0.40;;;21.90;1.00;;;;;;5044702;28;20187;-78
2022/04/15 08:11:43;;;;;;;0.40;0.40;;;21.70;1.00;;;;;;5044388;28;20747;-76
2022/04/15 08:14:09;;;;;;;0.50;0.50;;;22.00;1.00;;;;;;5049992;28;20262;-77
2022/04/15 08:16:35;;;;;;;0.40;0.40;;;22.10;1.00;;;;;;5051925;28;20185;-76
2022/04/15 08:19:00;;;;;;;0.40;0.40;;;21.70;1.00;;;;;;5041181;28;20191;-76
2022/04/15 08:21:26;;;;;;;0.40;0.40;;;21.80;1.00;;;;;;5034115;23;20307;-81
2022/04/15 08:23:51;;;;;;;0.40;0.40;;;21.90;1.00;;;;;;5015141;28;20216;-81
2022/04/15 08:26:17;;;;;;;0.50;0.50;;;22.50;1.00;;;;;;5014414;28;20184;-79
2022/04/15 08:28:42;;;;;;;0.53;0.53;;;22.50;1.00;;;;;;5005878;28;20177;-80
2022/04/15 08:31:08;;;;;;;0.60;0.60;;;22.90;1.00;;;;;;5005686;28;20216;-81
2022/04/15 08:33:35;;;;;;;0.50;0.50;;;23.30;1.00;;;;;;4998395;28;20181;-80
2022/04/15 08:36:01;;;;;;;0.50;0.50;;;22.40;1.00;;;;;;4998307;28;20177;-77
2022/04/15 08:38:26;;;;;;;0.60;0.60;;;22.20;1.00;;;;;;4995541;28;20259;-79
2022/04/15 08:40:56;;;;;;;0.50;0.50;;;22.80;1.00;;;;;;4995893;28;20626;-80
2022/04/15 08:43:24;;;;;;;0.50;0.50;;;23.10;1.00;;;;;;5000572;28;20224;-78
2022/04/15 08:45:49;;;;;;;0.40;0.40;;;22.90;1.00;;;;;;5000637;28;20196;-78
2022/04/15 08:48:15;;;;;;;0.50;0.50;;;22.50;1.00;;;;;;5011725;28;20528;-80
2022/04/15 08:50:41;;;;;;;0.60;0.60;;;22.50;1.00;;;;;;4998663;28;20225;-79
2022/04/15 08:53:08;;;;;;;0.50;0.50;;;22.60;1.00;;;;;;4995954;28;20184;-81
2022/04/15 08:55:34;;;;;;;0.50;0.50;;;22.70;1.00;;;;;;4995272;28;20544;-79
2022/04/15 08:58:00;;;;;;;0.60;0.60;;;23.20;1.00;;;;;;4995548;28;20169;-80
2022/04/15 09:00:26;;;;;;;0.50;0.50;;;23.70;1.00;;;;;;4995079;28;20569;-81
2022/04/15 09:02:53;;;;;;;0.50;0.50;;;23.10;1.00;;;;;;4996020;28;20173;-81
2022/04/15 09:05:21;;;;;;;0.60;0.60;;;23.30;1.00;;;;;;4995292;28;20224;-78
2022/04/15 09:07:46;;;;;;;0.60;0.60;;;23.40;1.00;;;;;;4995277;28;20177;-81
2022/04/15 09:10:14;;;;;;;0.50;0.50;;;23.20;1.00;;;;;;4997224;28;20204;-81
2022/04/15 09:12:41;;;;;;;0.50;0.50;;;23.50;1.00;;;;;;5008913;28;20180;-79
2022/04/15 09:15:06;;;;;;;0.50;0.50;;;24.10;1.00;;;;;;5014666;28;20191;-84
2022/04/15 09:17:34;;;;;;;0.63;0.63;;;23.70;1.00;;;;;;5014267;28;20284;-81
2022/04/15 09:20:00;;;;;;;0.50;0.50;;;23.60;1.00;;;;;;5015169;28;20473;-80
2022/04/15 09:22:26;;;;;;;0.60;0.60;;;22.80;1.00;;;;;;5015650;28;20600;-79
2022/04/15 09:24:52;;;;;;;0.40;0.40;;;22.90;1.00;;;;;;5014323;28;20261;-80
2022/04/15 09:27:19;;;;;;;0.60;0.60;;;22.80;1.00;;;;;;5000543;28;20181;-79
2022/04/15 09:29:45;;;;;;;0.50;0.50;;;22.80;1.00;;;;;;5014356;28;20500;-78
2022/04/15 09:32:14;;;;;;;0.50;0.50;;;23.20;1.00;;;;;;5001479;28;20180;-80
2022/04/15 09:35:16;;;;;;;0.60;0.60;;;23.30;1.00;;;;;;4995889;28;20185;-82
2022/04/15 09:37:43;;;;;;;0.40;0.40;;;23.60;1.00;;;;;;4917207;29;20179;-80
2022/04/15 09:40:16;;;;;;;0.53;0.53;;;23.50;1.00;;;;;;4980278;28;20205;-81
2022/04/15 09:42:52;;;;;;;0.50;0.50;;;23.10;1.00;;;;;;5008616;28;20190;-80
2022/04/15 09:45:20;;;;;;;0.60;0.60;;;23.20;1.00;;;;;;5001021;28;20204;-79
2022/04/15 09:47:57;;;;;;;0.50;0.50;;;23.70;1.00;;;;;;4985710;28;20180;-78
2022/04/15 09:50:22;;;;;;;0.60;0.60;;;23.20;1.00;;;;;;5007183;28;20196;-78
2022/04/15 09:52:52;;;;;;;0.50;0.50;;;22.90;1.00;;;;;;5015581;28;20176;-77
2022/04/15 09:55:23;;;;;;;0.50;0.50;;;23.10;1.00;;;;;;5021054;28;20176;-79
2022/04/15 09:57:50;;;;;;;0.47;0.47;;;24.00;1.00;;;;;;5013789;28;20188;-78
2022/04/15 10:00:18;;;;;;;0.40;0.40;;;23.70;1.00;;;;;;5013676;28;20250;-78
2022/04/15 10:02:44;;;;;;;0.60;0.60;;;23.70;1.00;;;;;;5006628;28;20637;-80
2022/04/15 10:05:12;;;;;;;0.60;0.60;;;23.80;1.00;;;;;;5004870;28;20220;-79
2022/04/15 10:07:40;;;;;;;0.40;0.40;;;24.00;1.00;;;;;;4995751;28;20634;-78
2022/04/15 10:10:07;;;;;;;0.47;0.47;;;24.10;1.00;;;;;;5001423;28;20200;-76
2022/04/15 10:12:39;;;;;;;0.57;0.57;;;24.40;1.00;;;;;;5013066;28;20172;-85
2022/04/15 10:15:06;;;;;;;0.60;0.60;;;23.90;1.00;;;;;;4996838;28;20188;-77
2022/04/15 10:17:34;;;;;;;0.50;0.50;;;24.20;1.00;;;;;;4993644;28;20180;-82
2022/04/15 10:20:00;;;;;;;0.50;0.50;;;24.40;1.00;;;;;;5013115;28;20196;-79
2022/04/15 10:22:26;;;;;;;0.40;0.40;;;23.00;1.00;;;;;;5013825;28;20707;-81
2022/04/15 10:24:51;;;;;;;0.40;0.40;;;23.50;1.00;;;;;;5014364;28;20235;-80
2022/04/15 10:27:26;;;;;;;0.50;0.50;;;23.70;1.00;;;;;;5012837;28;20180;-79
2022/04/15 10:30:13;;;;;;;0.50;0.50;;;24.00;1.00;;;;;;5013156;28;20179;-77
2022/04/15 10:33:09;;;;;;;0.47;0.47;;;23.80;1.00;;;;;;5011696;28;20191;-82
2022/04/15 10:35:36;;;;;;;0.47;0.47;;;24.30;1.00;;;;;;4999690;28;20188;-79
2022/04/15 10:38:08;;;;;;;0.53;0.53;;;24.40;1.00;;;;;;5014075;28;20228;-79
2022/04/15 10:40:35;;;;;;;0.40;0.40;;;24.20;1.00;;;;;;5012583;28;20318;-77
2022/04/15 10:43:21;;;;;;;0.50;0.50;;;24.00;1.00;;;;;;5012436;28;20180;-78
2022/04/15 10:45:47;;;;;;;0.50;0.50;;;24.40;1.00;;;;;;5010503;28;20215;-81
2022/04/15 10:48:13;;;;;;;0.40;0.40;;;24.50;1.00;;;;;;5009051;28;20208;-80
2022/04/15 10:50:40;;;;;;;0.60;0.60;;;24.20;1.00;;;;;;5011198;28;20197;-80
2022/04/15 10:53:25;;;;;;;0.50;0.50;;;24.80;1.00;;;;;;5009806;28;20184;-79
2022/04/15 10:55:54;;;;;;;0.60;0.60;;;24.80;1.00;;;;;;5011525;28;20169;-79
2022/04/15 10:58:20;;;;;;;0.40;0.40;;;24.80;1.00;;;;;;4996470;28;20184;-78
2022/04/15 11:01:16;;;;;;;0.40;0.40;;;24.20;1.00;;;;;;4995541;28;20205;-80
2022/04/15 11:03:45;;;;;;;0.50;0.50;;;23.70;1.00;;;;;;5003388;28;20303;-80
2022/04/15 11:06:11;;;;;;;0.37;0.37;;;22.90;1.00;;;;;;5003314;28;20814;-81
2022/04/15 11:08:48;;;;;;;0.30;0.30;;;23.00;1.00;;;;;;5003197;28;20181;-81
2022/04/15 11:11:14;;;;;;;0.40;0.40;;;22.30;1.00;;;;;;5011840;28;20268;-80
2022/04/15 11:13:39;;;;;;;0.30;0.30;;;22.00;1.00;;;;;;5010798;28;20212;-80
2022/04/15 11:18:42;;;;;;;0.30;0.30;;;22.70;1.00;;;;;;4999802;28;20173;-79
2022/04/15 11:21:14;;;;;;;0.40;0.40;;;23.60;1.00;;;;;;4996417;28;20278;-80
2022/04/15 11:23:40;;;;;;;0.33;0.33;;;23.80;1.00;;;;;;5011385;28;20684;-81
2022/04/15 11:26:06;;;;;;;0.30;0.30;;;24.10;1.00;;;;;;5017671;28;20614;-80
2022/04/15 11:28:32;;;;;;;0.40;0.40;;;23.90;1.00;;;;;;5018185;28;20184;-79
2022/04/15 11:30:58;;;;;;;0.40;0.40;;;24.40;1.00;;;;;;5001401;28;20208;-80
2022/04/15 11:33:23;;;;;;;0.33;0.33;;;23.50;1.00;;;;;;5012981;28;20184;-78
2022/04/15 11:35:49;;;;;;;0.40;0.40;;;23.80;1.00;;;;;;5017686;28;20185;-81
2022/04/15 11:38:15;;;;;;;0.40;0.40;;;23.80;1.00;;;;;;5002578;28;20659;-79
2022/04/15 11:40:43;;;;;;;0.40;0.40;;;24.10;1.00;;;;;;4996402;28;20217;-77
2022/04/15 11:43:10;;;;;;;0.50;0.50;;;24.30;1.00;;;;;;4998338;28;20206;-78
2022/04/15 11:45:41;;;;;;;0.30;0.30;;;24.50;1.00;;;;;;4998675;28;20654;-79
2022/04/15 11:48:25;;;;;;;0.40;0.40;;;24.40;1.00;;;;;;4997087;28;20173;-80
2022/04/15 11:50:53;;;;;;;0.30;0.30;;;23.70;1.00;;;;;;4997158;28;20549;-79
2022/04/15 11:53:19;;;;;;;0.30;0.30;;;23.80;1.00;;;;;;4997549;28;20177;-80
2022/04/15 11:55:53;;;;;;;0.43;0.43;;;23.80;1.00;;;;;;5000861;28;20555;-80
2022/04/15 11:58:21;;;;;;;0.30;0.30;;;23.60;1.00;;;;;;5002774;28;20172;-81
2022/04/15 12:00:54;;;;;;;0.30;0.30;;;23.70;1.00;;;;;;5008815;28;20580;-80
2022/04/15 12:03:20;;;;;;;0.40;0.40;;;23.50;1.00;;;;;;5028809;28;20173;-79
2022/04/15 12:05:47;;;;;;;0.30;0.30;;;23.30;1.00;;;;;;5030284;28;20203;-81
2022/04/15 12:08:12;;;;;;;0.43;0.43;;;22.50;1.00;;;;;;5021009;28;20180;-80
2022/04/15 12:10:39;;;;;;;0.40;0.40;;;22.80;1.00;;;;;;5013810;28;20209;-84
2022/04/15 12:13:08;;;;;;;0.40;0.40;;;23.10;1.00;;;;;;5009276;28;20168;-78
2022/04/15 12:15:34;;;;;;;0.40;0.40;;;23.00;1.00;;;;;;5004419;28;20590;-78
2022/04/15 12:18:04;;;;;;;0.40;0.40;;;22.00;1.00;;;;;;5011459;28;20203;-77
2022/04/15 12:20:34;;;;;;;0.37;0.37;;;21.30;1.00;;;;;;5008747;28;20227;-79
2022/04/15 12:23:01;;;;;;;0.30;0.30;;;21.20;1.00;;;;;;5014657;28;20185;-82
2022/04/15 12:26:05;;;;;;;0.30;0.30;;;21.80;1.00;;;;;;5009461;28;20213;-78
2022/04/15 12:29:47;;;;;;;0.30;0.30;;;22.10;1.00;;;;;;5007009;28;20189;-77
2022/04/15 12:30:58;;;;;;;0.30;0.30;;;22.30;1.00;;;;;;5023079;28;20224;-80
2022/04/15 12:33:25;;;;;;;0.30;0.30;;;22.40;1.00;;;;;;5020021;28;20176;-79
2022/04/15 12:36:02;;;;;;;0.40;0.40;;;22.20;1.00;;;;;;5010725;28;20184;-81
2022/04/15 12:38:29;;;;;;;0.40;0.40;;;21.50;1.00;;;;;;5007026;28;20192;-80
2022/04/15 12:41:10;;;;;;;0.37;0.37;;;22.10;1.00;;;;;;5012783;28;20581;-81
2022/04/15 12:43:36;;;;;;;0.40;0.40;;;22.70;1.00;;;;;;5007010;28;20822;-79
2022/04/15 12:46:02;;;;;;;0.37;0.37;;;23.10;1.00;;;;;;5012168;28;20173;-80
2022/04/15 12:48:28;;;;;;;0.37;0.37;;;23.70;1.00;;;;;;5010066;28;20181;-80
2022/04/15 12:50:58;;;;;;;0.43;0.43;;;23.50;1.00;;;;;;5016465;28;20708;-80
2022/04/15 12:53:25;;;;;;;0.47;0.47;;;23.20;1.00;;;;;;5019088;28;20191;-78
2022/04/15 12:55:53;;;;;;;0.30;0.30;;;23.00;1.00;;;;;;5008627;28;20195;-81